Time;durP1;ratioP1;P1;durP2;ratioP2;P2;SDS_P1;SDS_P2;PMS_P1;PMS_P2;Temp;Humidity;BMP_temperature;BMP_pressure;BME280_temperature;BME280_humidity;BME280_pressure;Samples;Min_cycle;Max_cycle;Signal;HPM_P1;HPM_P2
2022/09/20 00:02:00;;;;;;;0.20;0.20;;;;;;;-145.06;100.00;60892.56;5887351;23;20397;-91
2022/09/20 00:04:39;;;;;;;1.30;0.40;;;;;;;-145.06;100.00;60892.56;5877476;23;20484;-90
2022/09/20 00:07:18;;;;;;;0.75;0.20;;;;;;;-145.06;100.00;60892.56;5876477;23;20006;-90
2022/09/20 00:09:57;;;;;;;0.50;0.30;;;;;;;-145.06;100.00;60892.56;5877465;23;20033;-92
2022/09/20 00:12:36;;;;;;;0.28;0.22;;;;;;;-145.06;100.00;60892.56;5876703;23;20081;-90
2022/09/20 00:15:16;;;;;;;0.68;0.30;;;;;;;-145.06;100.00;60892.56;5876809;23;20015;-92
2022/09/20 00:17:55;;;;;;;1.25;0.30;;;;;;;-145.06;100.00;60892.56;5876812;23;20003;-92
2022/09/20 00:20:34;;;;;;;1.10;0.30;;;;;;;-145.06;100.00;60892.56;5877315;23;20014;-91
2022/09/20 00:23:15;;;;;;;0.80;0.30;;;;;;;-145.06;100.00;60892.56;5876453;23;20394;-92
2022/09/20 00:25:58;;;;;;;0.28;0.20;;;;;;;-145.06;100.00;60892.56;5876758;23;20010;-91
2022/09/20 00:28:37;;;;;;;0.68;0.40;;;;;;;-145.06;100.00;60892.56;5878991;23;20081;-91
2022/09/20 00:31:16;;;;;;;0.63;0.40;;;;;;;-145.06;100.00;60892.56;5878826;23;20010;-90
2022/09/20 00:36:55;;;;;;;0.52;0.43;;;;;;;-145.06;100.00;60892.56;5888241;23;20461;-91
2022/09/20 00:39:33;;;;;;;1.07;0.40;;;;;;;-145.06;100.00;60892.56;5878339;23;20010;-90
2022/09/20 00:42:13;;;;;;;1.03;0.40;;;;;;;-145.06;100.00;60892.56;5879076;23;20243;-91
2022/09/20 00:44:57;;;;;;;1.45;0.60;;;;;;;-145.06;100.00;60892.56;5877477;23;20077;-92
2022/09/20 00:47:36;;;;;;;0.98;0.60;;;;;;;-145.06;100.00;60892.56;5877946;23;20010;-92
2022/09/20 00:50:36;;;;;;;0.60;0.40;;;;;;;-145.06;100.00;60892.56;5877939;23;20010;-91
2022/09/20 00:53:27;;;;;;;0.90;0.32;;;;;;;-145.06;100.00;60892.56;5877855;23;20274;-91
2022/09/20 00:56:12;;;;;;;0.98;0.40;;;;;;;-145.06;100.00;60892.56;5877973;23;20323;-90
2022/09/20 00:59:02;;;;;;;0.70;0.40;;;;;;;-145.06;100.00;60892.56;5877926;23;20118;-91
2022/09/20 01:01:45;;;;;;;0.68;0.43;;;;;;;-145.06;100.00;60892.56;5878226;23;20007;-92
2022/09/20 01:04:27;;;;;;;0.73;0.40;;;;;;;-145.06;100.00;60892.56;5877235;23;20089;-90
2022/09/20 01:07:08;;;;;;;0.52;0.30;;;;;;;-145.06;100.00;60892.56;5876414;23;20002;-91
2022/09/20 01:09:48;;;;;;;0.73;0.40;;;;;;;-145.06;100.00;60892.56;5878813;23;20014;-91
2022/09/20 01:12:31;;;;;;;1.05;0.30;;;;;;;-145.06;100.00;60892.56;5878352;23;20077;-91
2022/09/20 01:15:11;;;;;;;0.50;0.30;;;;;;;-145.06;100.00;60892.56;5877983;23;20421;-92
2022/09/20 01:17:54;;;;;;;0.40;0.38;;;;;;;-145.06;100.00;60892.56;5876462;23;20454;-92
2022/09/20 01:20:37;;;;;;;0.40;0.30;;;;;;;-145.06;100.00;60892.56;5878176;23;20235;-92
2022/09/20 01:23:34;;;;;;;0.50;0.30;;;;;;;-145.06;100.00;60892.56;5877846;23;20085;-91
2022/09/20 01:26:35;;;;;;;1.00;0.43;;;;;;;-145.06;100.00;60892.56;5877998;23;20473;-92
2022/09/20 01:29:33;;;;;;;0.32;0.30;;;;;;;-145.06;100.00;60892.56;5877579;23;20003;-91
2022/09/20 01:32:18;;;;;;;0.90;0.40;;;;;;;-145.06;100.00;60892.56;5878099;23;20358;-91
2022/09/20 01:35:00;;;;;;;0.40;0.30;;;;;;;-145.06;100.00;60892.56;5878272;23;20010;-90
2022/09/20 01:38:14;;;;;;;0.32;0.30;;;;;;;-145.06;100.00;60892.56;5876969;23;20010;-90
2022/09/20 01:41:10;;;;;;;0.50;0.40;;;;;;;-145.06;100.00;60892.56;5876779;23;20070;-90
2022/09/20 01:44:21;;;;;;;0.40;0.30;;;;;;;-145.06;100.00;60892.56;5877753;23;20006;-91
2022/09/20 01:47:10;;;;;;;0.63;0.40;;;;;;;-145.06;100.00;60892.56;5876817;23;20073;-90
2022/09/20 01:50:23;;;;;;;0.43;0.35;;;;;;;-145.06;100.00;60892.56;5877554;23;20464;-91
2022/09/20 01:53:24;;;;;;;0.45;0.32;;;;;;;-145.06;100.00;60892.56;5877892;23;20273;-92
2022/09/20 01:57:00;;;;;;;0.45;0.32;;;;;;;-145.06;100.00;60892.56;5876884;23;20445;-90
2022/09/20 01:59:45;;;;;;;0.98;0.30;;;;;;;-145.06;100.00;60892.56;5884621;23;20014;-92
2022/09/20 02:02:32;;;;;;;1.50;0.57;;;;;;;-145.06;100.00;60892.56;5855031;23;20010;-91
2022/09/20 02:05:21;;;;;;;0.55;0.25;;;;;;;-145.06;100.00;60892.56;5875890;23;20085;-91
2022/09/20 02:08:15;;;;;;;0.57;0.30;;;;;;;-145.06;100.00;60892.56;5877849;23;20006;-91
2022/09/20 02:11:02;;;;;;;0.50;0.40;;;;;;;-145.06;100.00;60892.56;5877193;23;20189;-91
2022/09/20 02:13:47;;;;;;;1.27;0.40;;;;;;;-145.06;100.00;60892.56;5876871;23;20433;-91
2022/09/20 02:16:42;;;;;;;0.30;0.30;;;;;;;-145.06;100.00;60892.56;5877502;23;20060;-91
2022/09/20 02:19:45;;;;;;;0.93;0.30;;;;;;;-145.06;100.00;60892.56;5876448;23;20010;-90
2022/09/20 02:22:41;;;;;;;0.82;0.47;;;;;;;-145.06;100.00;60892.56;5877163;23;20002;-93
2022/09/20 02:25:34;;;;;;;1.23;0.30;;;;;;;-145.06;100.00;60892.56;5876708;23;20307;-91
2022/09/20 02:28:31;;;;;;;1.50;0.32;;;;;;;-145.06;100.00;60892.56;5876611;23;20034;-91
2022/09/20 02:31:29;;;;;;;1.02;0.50;;;;;;;-145.06;100.00;60892.56;5876152;23;20003;-90
2022/09/20 02:34:45;;;;;;;0.65;0.32;;;;;;;-145.06;100.00;60892.56;5876313;23;20006;-90
2022/09/20 02:37:38;;;;;;;0.80;0.38;;;;;;;-145.06;100.00;60892.56;5876399;23;20038;-91
2022/09/20 02:40:29;;;;;;;0.75;0.40;;;;;;;-145.06;100.00;60892.56;5876384;23;20327;-90
2022/09/20 02:43:49;;;;;;;0.60;0.38;;;;;;;-145.06;100.00;60892.56;5876519;23;20307;-90
2022/09/20 02:46:44;;;;;;;0.38;0.30;;;;;;;-145.06;100.00;60892.56;5875999;23;19998;-92
2022/09/20 02:49:46;;;;;;;0.60;0.40;;;;;;;-145.06;100.00;60892.56;5876341;23;20429;-92
2022/09/20 02:52:25;;;;;;;0.32;0.28;;;;;;;-145.06;100.00;60892.56;5876504;23;20010;-91
2022/09/20 02:55:13;;;;;;;0.30;0.30;;;;;;;-145.06;100.00;60892.56;5875730;23;20429;-91
2022/09/20 02:58:14;;;;;;;0.80;0.30;;;;;;;-145.06;100.00;60892.56;5874028;23;20034;-92
2022/09/20 03:01:08;;;;;;;1.15;0.40;;;;;;;-145.06;100.00;60892.56;5874183;23;20125;-90
2022/09/20 03:04:06;;;;;;;0.55;0.30;;;;;;;-145.06;100.00;60892.56;5876720;23;20014;-91
2022/09/20 03:07:04;;;;;;;0.68;0.30;;;;;;;-145.06;100.00;60892.56;5875897;23;20002;-91
2022/09/20 03:10:12;;;;;;;0.40;0.30;;;;;;;-145.06;100.00;60892.56;5875233;23;20010;-91
2022/09/20 03:13:20;;;;;;;1.15;0.40;;;;;;;-145.06;100.00;60892.56;5877042;23;20014;-91
2022/09/20 03:16:23;;;;;;;1.08;0.50;;;;;;;-145.06;100.00;60892.56;5875687;23;20010;-90
2022/09/20 03:19:35;;;;;;;0.60;0.30;;;;;;;-145.06;100.00;60892.56;5875518;23;20446;-90
2022/09/20 03:22:35;;;;;;;0.82;0.47;;;;;;;-145.06;100.00;60892.56;5843376;23;20010;-89
2022/09/20 03:25:33;;;;;;;0.73;0.50;;;;;;;-145.06;100.00;60892.56;5876015;23;20315;-90
2022/09/20 03:28:26;;;;;;;1.95;0.30;;;;;;;-145.06;100.00;60892.56;5887208;23;20022;-90
2022/09/20 03:31:26;;;;;;;0.57;0.40;;;;;;;-145.06;100.00;60892.56;5876790;23;20002;-92
2022/09/20 03:34:11;;;;;;;0.75;0.52;;;;;;;-145.06;100.00;60892.56;5880366;23;20395;-90
2022/09/20 03:37:17;;;;;;;2.13;0.50;;;;;;;-145.06;100.00;60892.56;5877649;23;20014;-91
2022/09/20 03:40:24;;;;;;;0.75;0.40;;;;;;;-145.06;100.00;60892.56;5882290;23;20010;-93
2022/09/20 03:43:26;;;;;;;1.15;0.40;;;;;;;-145.06;100.00;60892.56;5880069;23;20006;-91
2022/09/20 03:46:08;;;;;;;0.90;0.40;;;;;;;-145.06;100.00;60892.56;5878346;23;20002;-90
2022/09/20 03:49:11;;;;;;;1.27;0.40;;;;;;;-145.06;100.00;60892.56;5881267;23;20003;-92
2022/09/20 03:51:56;;;;;;;1.00;0.30;;;;;;;-145.06;100.00;60892.56;5878830;23;20034;-90
2022/09/20 03:54:53;;;;;;;2.83;0.70;;;;;;;-145.06;100.00;60892.56;5881021;23;20029;-92
2022/09/20 03:57:38;;;;;;;1.00;0.50;;;;;;;-145.06;100.00;60892.56;5881506;23;20006;-90
2022/09/20 04:00:37;;;;;;;0.85;0.50;;;;;;;-145.06;100.00;60892.56;5881694;23;20006;-92
2022/09/20 04:03:27;;;;;;;1.08;0.35;;;;;;;-145.06;100.00;60892.56;5884376;23;20006;-91
2022/09/20 04:06:33;;;;;;;0.80;0.52;;;;;;;-145.06;100.00;60892.56;5885018;23;20306;-92
2022/09/20 04:09:39;;;;;;;0.80;0.52;;;;;;;-145.06;100.00;60892.56;5884675;23;20002;-92
2022/09/20 04:12:56;;;;;;;1.05;0.50;;;;;;;-145.06;100.00;60892.56;5884323;23;20006;-92
2022/09/20 04:29:31;;;;;;;0.57;0.57;;;;;;;-145.06;100.00;60892.56;5919762;23;20018;-93
2022/09/20 04:32:29;;;;;;;0.65;0.60;;;;;;;-145.06;100.00;60892.56;5915344;23;20006;-91
2022/09/20 04:38:53;;;;;;;0.45;0.40;;;;;;;-145.06;100.00;60892.56;5923095;23;20006;-92
2022/09/20 04:41:54;;;;;;;1.25;0.60;;;;;;;-145.06;100.00;60892.56;5912254;23;20006;-94
2022/09/20 04:45:07;;;;;;;1.95;0.80;;;;;;;-145.06;100.00;60892.56;5912582;23;20006;-95
2022/09/20 04:48:10;;;;;;;0.82;0.60;;;;;;;-145.06;100.00;60892.56;5911910;23;20034;-93
2022/09/20 04:51:08;;;;;;;1.23;0.80;;;;;;;-145.06;100.00;60892.56;5911725;23;20002;-92
2022/09/20 04:54:19;;;;;;;0.73;0.63;;;;;;;-145.06;100.00;60892.56;5912511;23;20085;-93
2022/09/20 04:57:33;;;;;;;;;;;;;;;;;;;;;
2022/09/20 05:00:32;;;;;;;2.25;0.90;;;;;;;-145.06;100.00;60892.56;5923531;23;20006;-94
2022/09/20 05:03:39;;;;;;;2.92;0.80;;;;;;;-145.06;100.00;60892.56;5911865;23;20010;-92
2022/09/20 05:06:40;;;;;;;1.83;1.10;;;;;;;-145.06;100.00;60892.56;5911956;23;20441;-93
2022/09/20 05:09:37;;;;;;;1.23;0.90;;;;;;;-145.06;100.00;60892.56;5911649;23;20002;-94
2022/09/20 05:12:28;;;;;;;2.05;1.00;;;;;;;-145.06;100.00;60892.56;5911032;23;20009;-93
2022/09/20 05:15:49;;;;;;;1.30;1.00;;;;;;;-145.06;100.00;60892.56;5911640;23;20033;-93
2022/09/20 05:19:06;;;;;;;1.17;1.05;;;;;;;-145.06;100.00;60892.56;5874812;23;20033;-94
2022/09/20 05:22:04;;;;;;;1.50;0.95;;;;;;;-145.06;100.00;60892.56;5912996;23;20006;-93
2022/09/20 05:25:01;;;;;;;1.48;1.10;;;;;;;-145.06;100.00;60892.56;5912509;23;20508;-93
2022/09/20 05:27:58;;;;;;;3.80;1.60;;;;;;;-145.06;100.00;60892.56;5912200;23;20314;-92
2022/09/20 05:30:52;;;;;;;2.50;1.00;;;;;;;-145.06;100.00;60892.56;5912151;23;20006;-93
2022/09/20 12:27:47;;;;;;;1.05;0.32;;;;;;;-145.06;100.00;60892.56;5809038;23;20012;-92
2022/09/20 12:35:00;;;;;;;0.60;0.20;;;;;;;-145.06;100.00;60892.56;5783256;24;20008;-93
2022/09/20 13:19:03;;;;;;;0.50;0.30;;;;;;;-145.06;100.00;60892.56;5919623;23;20029;-93
2022/09/20 13:21:56;;;;;;;1.40;0.40;;;;;;;-145.06;100.00;60892.56;5912507;23;20010;-92
2022/09/20 13:25:21;;;;;;;0.20;0.20;;;;;;;-145.06;100.00;60892.56;5913113;23;20014;-93
2022/09/20 13:35:30;;;;;;;0.85;0.30;;;;;;;-145.06;100.00;60892.56;5810772;23;20012;-93
2022/09/20 13:38:42;;;;;;;;;;;;;;;;;;;;;
2022/09/20 15:54:05;;;;;;;0.17;0.17;;;;;;;-145.06;100.00;60892.56;5913803;23;20345;-92
2022/09/20 15:56:43;;;;;;;0.43;0.20;;;;;;;-145.06;100.00;60892.56;5910269;23;20002;-95
2022/09/20 15:59:22;;;;;;;0.70;0.47;;;;;;;-145.06;100.00;60892.56;5910482;23;20093;-94
2022/09/20 16:02:15;;;;;;;0.93;0.20;;;;;;;-145.06;100.00;60892.56;5910684;23;20009;-93
2022/09/20 16:05:15;;;;;;;0.28;0.25;;;;;;;-145.06;100.00;60892.56;5912006;23;20006;-92
